Iguatu, Brazil
Current Conditions -  °F | °C
As of 11:00 PM on Saturday 22 Nov 2014 (Local Time) from SBFI Reporting Station
Clear Clear  
Wind Chill: 68°   Ceiling: Unl
Heat Index: 68°   Visibility: 6mi
Dew Point: 61°   Wind: 5mph
Humidity: 78%   Direction: 190°S
Pressure: 29.91"   Gusts: NA
Location:  24.64°S, 53.13°W
Report Text: SBFI 230100Z 19004KT CAVOK 20/16 Q1013
Loading
Personal Weather Stations






























Interactive Weather Map New forecast layout! Learn more

10-Day Weather Forecast

Advertisements
Track Severe Weather on mobile